Time;durP1;ratioP1;P1;durP2;ratioP2;P2;SDS_P1;SDS_P2;PMS_P1;PMS_P2;Temp;Humidity;BMP_temperature;BMP_pressure;BME280_temperature;BME280_humidity;BME280_pressure;Samples;Min_cycle;Max_cycle;Signal;HPM_P1;HPM_P2
2021/03/26 00:01:51;;;;;;;3.22;2.00;;;;;;;6.33;46.89;93185.06;2068013;69;20589;-72
2021/03/26 00:04:18;;;;;;;3.20;1.98;;;;;;;6.22;47.49;93204.34;2067981;69;20164;-74
2021/03/26 00:06:47;;;;;;;3.28;2.03;;;;;;;6.41;46.67;93190.56;2068040;69;20149;-74
2021/03/26 00:09:19;;;;;;;3.95;2.30;;;;;;;6.54;46.06;93187.47;2067999;69;20176;-73
2021/03/26 00:11:47;;;;;;;3.17;1.80;;;;;;;6.40;46.78;93189.09;2067992;69;20160;-72
2021/03/26 00:14:13;;;;;;;4.32;2.22;;;;;;;5.73;49.20;93189.75;2068037;69;20614;-76
2021/03/26 00:16:39;;;;;;;4.03;2.30;;;;;;;5.90;48.41;93185.53;2068009;69;20227;-75
2021/03/26 00:19:05;;;;;;;3.42;2.10;;;;;;;6.07;47.49;93188.44;2068029;69;20202;-77
2021/03/26 00:21:32;;;;;;;3.28;2.03;;;;;;;6.03;48.33;93190.88;2067938;69;20585;-73
2021/03/26 00:23:58;;;;;;;3.40;2.17;;;;;;;6.00;48.11;93186.41;2067794;69;20173;-72
2021/03/26 00:26:23;;;;;;;2.63;1.83;;;;;;;6.13;46.96;93186.13;2067954;69;20661;-73
2021/03/26 00:28:49;;;;;;;3.83;1.88;;;;;;;6.05;47.27;93183.41;2067967;69;20201;-73
2021/03/26 00:31:15;;;;;;;5.25;2.00;;;;;;;6.04;47.54;93186.75;2067858;69;20713;-73
2021/03/26 00:33:41;;;;;;;3.70;2.08;;;;;;;5.76;48.86;93185.06;2067885;69;20314;-74
2021/03/26 00:36:07;;;;;;;5.68;2.10;;;;;;;5.69;49.39;93189.41;2067809;69;20149;-73
2021/03/26 00:38:33;;;;;;;7.65;2.30;;;;;;;5.46;49.53;93191.56;2067694;69;20179;-73
2021/03/26 00:40:59;;;;;;;3.85;2.10;;;;;;;5.40;51.11;93194.56;2067959;69;20149;-78
2021/03/26 00:43:25;;;;;;;4.03;2.08;;;;;;;5.17;51.48;93196.69;2067817;69;20615;-79
2021/03/26 00:45:51;;;;;;;3.47;2.00;;;;;;;5.28;50.86;93196.31;2067976;69;20144;-75
2021/03/26 00:48:20;;;;;;;2.70;2.00;;;;;;;5.26;51.61;93194.06;2067815;69;20164;-71
2021/03/26 00:50:49;;;;;;;5.10;2.17;;;;;;;5.68;51.69;93201.13;2067815;69;20172;-73
2021/03/26 00:53:19;;;;;;;4.18;1.98;;;;;;;5.32;50.86;93189.03;2067805;69;20156;-73
2021/03/26 00:55:47;;;;;;;3.05;1.80;;;;;;;5.23;51.79;93191.66;2064639;69;20141;-73
2021/03/26 00:58:13;;;;;;;3.72;2.20;;;;;;;5.08;52.63;93182.03;2061785;69;20172;-73
2021/03/26 01:00:39;;;;;;;3.50;2.15;;;;;;;4.97;52.03;93190.06;2067840;69;20520;-73
2021/03/26 01:03:11;;;;;;;3.95;2.40;;;;;;;5.09;52.52;93185.59;2064534;69;20155;-74
2021/03/26 01:05:42;;;;;;;3.15;2.10;;;;;;;4.99;52.39;93190.25;2067835;69;20156;-75
2021/03/26 01:08:08;;;;;;;3.05;2.15;;;;;;;4.97;52.94;93185.25;2064324;69;20295;-74
2021/03/26 01:10:39;;;;;;;3.63;2.17;;;;;;;5.02;53.23;93178.72;2061757;69;20185;-74
2021/03/26 01:13:07;;;;;;;2.78;2.10;;;;;;;5.04;53.06;93178.91;2067889;69;20140;-74
2021/03/26 01:15:33;;;;;;;4.45;2.40;;;;;;;4.30;54.01;93179.97;2067819;69;20255;-74
2021/03/26 01:18:02;;;;;;;3.80;2.60;;;;;;;4.42;54.29;93179.59;2067832;69;20172;-75
2021/03/26 01:20:31;;;;;;;3.92;2.55;;;;;;;4.41;54.91;93181.66;2067842;69;20247;-75
2021/03/26 01:22:57;;;;;;;4.18;2.20;;;;;;;4.37;54.96;93183.31;2064439;69;20719;-74
2021/03/26 01:25:29;;;;;;;3.53;2.25;;;;;;;4.73;53.30;93183.81;2064440;69;20164;-74
2021/03/26 01:28:14;;;;;;;3.30;2.30;;;;;;;4.56;53.78;93186.44;2064500;69;20167;-74
2021/03/26 01:30:40;;;;;;;4.22;2.60;;;;;;;4.53;54.43;93181.97;2064537;69;20159;-73
2021/03/26 01:33:07;;;;;;;4.28;2.28;;;;;;;4.53;54.66;93179.19;2068010;69;20159;-73
2021/03/26 01:35:36;;;;;;;5.13;2.30;;;;;;;4.52;53.88;93177.72;2068039;69;20143;-73
2021/03/26 01:38:06;;;;;;;4.15;2.42;;;;;;;3.92;55.50;93184.81;2067702;69;20259;-74
2021/03/26 01:40:47;;;;;;;3.58;2.45;;;;;;;3.66;56.76;93177.53;2064480;69;20148;-74
2021/03/26 01:43:23;;;;;;;4.15;2.80;;;;;;;3.95;55.97;93178.13;2064575;69;20158;-74
2021/03/26 01:45:52;;;;;;;4.57;2.60;;;;;;;4.13;54.77;93174.22;2067902;69;20148;-73
2021/03/26 01:48:26;;;;;;;4.97;2.60;;;;;;;3.68;56.87;93169.38;2067823;69;20223;-74
2021/03/26 01:50:53;;;;;;;3.67;2.10;;;;;;;3.80;57.06;93176.06;2064609;69;20144;-74
2021/03/26 01:53:20;;;;;;;3.90;2.38;;;;;;;3.68;57.24;93174.94;2064697;69;20167;-73
2021/03/26 01:55:53;;;;;;;3.25;2.03;;;;;;;3.57;56.07;93170.44;2066821;69;20148;-73
2021/03/26 01:58:23;;;;;;;5.63;2.15;;;;;;;3.61;57.27;93178.44;2067765;69;20169;-75
2021/03/26 02:00:53;;;;;;;3.67;2.13;;;;;;;3.77;57.39;93177.94;2064556;69;20218;-76
2021/03/26 02:03:21;;;;;;;4.38;2.40;;;;;;;3.86;56.74;93173.09;2067778;69;20148;-74
2021/03/26 02:05:53;;;;;;;;;;;;;;;3.80;56.87;93160.13;2068042;69;20149;-73
2021/03/26 02:08:32;;;;;;;4.00;2.10;;;;;;;3.80;56.60;93167.69;2067737;69;20199;-74
2021/03/26 02:11:15;;;;;;;3.50;2.08;;;;;;;3.65;56.26;93174.00;2067736;69;20239;-71
2021/03/26 02:13:42;;;;;;;3.78;2.42;;;;;;;3.23;58.22;93176.31;2067715;69;20188;-73
2021/03/26 02:16:14;;;;;;;4.40;2.47;;;;;;;3.40;58.52;93173.03;2064399;69;20632;-73
2021/03/26 02:19:01;;;;;;;6.72;2.70;;;;;;;3.59;57.90;93172.69;2062985;69;20148;-73
2021/03/26 02:21:32;;;;;;;5.05;2.17;;;;;;;3.52;57.33;93172.13;2061055;69;20145;-73
2021/03/26 02:24:04;;;;;;;5.10;2.85;;;;;;;3.26;58.04;93166.88;2064515;69;20257;-74
2021/03/26 02:26:38;;;;;;;3.47;2.45;;;;;;;3.47;57.92;93173.03;2064610;69;20145;-71
2021/03/26 02:29:28;;;;;;;6.43;2.63;;;;;;;3.67;56.83;93165.84;2061114;69;20218;-71
2021/03/26 02:32:25;;;;;;;4.70;2.67;;;;;;;3.38;57.20;93168.00;2058619;69;20585;-73
2021/03/26 02:35:12;;;;;;;3.67;2.38;;;;;;;3.41;56.84;93172.47;2057851;69;20145;-73
2021/03/26 02:37:42;;;;;;;5.97;2.08;;;;;;;3.45;56.71;93181.22;2061078;69;20153;-73
2021/03/26 02:40:25;;;;;;;8.45;2.58;;;;;;;3.33;58.58;93179.31;2062383;69;20157;-74
2021/03/26 02:43:02;;;;;;;7.53;2.67;;;;;;;3.22;58.55;93172.78;2061573;69;20152;-73
2021/03/26 02:45:37;;;;;;;5.28;2.50;;;;;;;3.13;58.19;93181.66;2065019;69;20145;-76
2021/03/26 02:48:19;;;;;;;3.75;2.67;;;;;;;2.83;59.96;93179.50;2062087;69;20165;-75
2021/03/26 02:51:04;;;;;;;7.30;2.40;;;;;;;3.02;58.94;93177.19;2062008;69;20164;-75
2021/03/26 02:54:17;;;;;;;4.55;2.40;;;;;;;3.08;58.56;93185.38;2065229;69;20240;-75
2021/03/26 02:56:52;;;;;;;7.20;2.67;;;;;;;2.93;59.27;93191.63;2062008;69;20130;-76
2021/03/26 02:59:24;;;;;;;5.55;2.35;;;;;;;2.82;60.33;93188.41;2065358;69;20136;-75
2021/03/26 03:01:56;;;;;;;9.75;2.90;;;;;;;2.88;59.51;93198.06;2059488;69;20140;-76
2021/03/26 03:04:34;;;;;;;5.53;2.80;;;;;;;2.80;59.03;93195.25;2062013;69;20219;-74
2021/03/26 03:07:09;;;;;;;8.00;2.60;;;;;;;2.75;58.80;93196.16;2065483;69;20199;-75
2021/03/26 03:10:06;;;;;;;5.20;2.72;;;;;;;2.84;58.67;93194.91;2065236;69;20179;-75
2021/03/26 03:12:38;;;;;;;6.28;2.58;;;;;;;2.93;60.09;93185.28;2065492;69;20143;-75
2021/03/26 03:15:24;;;;;;;6.68;2.70;;;;;;;3.13;59.46;93187.22;2062052;69;20663;-75
2021/03/26 03:18:06;;;;;;;5.25;2.42;;;;;;;2.96;59.48;93189.75;2062019;69;20184;-74
2021/03/26 03:20:48;;;;;;;6.63;3.08;;;;;;;2.47;59.96;93194.13;2062002;69;20153;-75
2021/03/26 03:23:30;;;;;;;4.85;2.85;;;;;;;2.82;59.39;93185.63;2061882;69;20145;-73
2021/03/26 03:26:58;;;;;;;7.35;2.65;;;;;;;2.72;60.19;93186.13;2065368;69;20148;-73
2021/03/26 03:29:38;;;;;;;4.50;2.38;;;;;;;2.88;60.21;93183.41;2061222;69;20596;-76
2021/03/26 03:33:06;;;;;;;4.97;2.45;;;;;;;2.85;59.95;93187.31;2059728;69;20157;-73
2021/03/26 03:35:55;;;;;;;5.85;2.80;;;;;;;2.87;59.25;93190.28;2051747;69;20235;-76
2021/03/26 03:38:54;;;;;;;5.72;2.72;;;;;;;2.84;59.09;93183.78;2061817;69;20612;-76
2021/03/26 03:41:46;;;;;;;8.57;2.53;;;;;;;2.78;60.45;93188.75;2065276;69;20151;-75
2021/03/26 03:44:27;;;;;;;6.97;4.00;;;;;;;2.67;59.49;93187.03;2061939;69;20149;-73
2021/03/26 03:47:16;;;;;;;4.10;2.70;;;;;;;2.66;59.84;93182.75;2062061;69;20231;-75
2021/03/26 03:50:07;;;;;;;5.00;2.58;;;;;;;2.77;60.05;93182.44;2061897;69;20204;-77
2021/03/26 03:52:43;;;;;;;6.03;2.50;;;;;;;2.35;59.88;93186.66;2061911;69;20237;-74
2021/03/26 03:55:21;;;;;;;5.45;3.00;;;;;;;2.65;59.84;93188.84;2061989;69;20167;-76
2021/03/26 03:58:04;;;;;;;4.80;2.63;;;;;;;2.43;60.99;93187.41;2061804;69;20616;-75
2021/03/26 04:00:41;;;;;;;4.45;2.70;;;;;;;2.21;60.77;93183.97;2061885;69;20239;-73
2021/03/26 04:03:28;;;;;;;4.10;2.88;;;;;;;2.31;60.95;93180.69;2061946;69;20168;-76
2021/03/26 04:05:57;;;;;;;6.82;3.55;;;;;;;2.22;60.94;93191.00;2062028;69;20199;-76
2021/03/26 04:08:37;;;;;;;6.55;3.70;;;;;;;2.35;60.67;93187.38;2065108;69;20239;-74
2021/03/26 04:11:13;;;;;;;8.05;3.78;;;;;;;2.24;61.26;93187.66;2065194;69;20229;-76
2021/03/26 04:13:49;;;;;;;5.57;3.20;;;;;;;2.36;61.62;93185.34;2061920;69;20141;-77
2021/03/26 04:16:20;;;;;;;7.30;4.07;;;;;;;2.42;60.86;93192.25;2061918;69;20160;-74
2021/03/26 04:18:54;;;;;;;6.85;3.83;;;;;;;2.08;61.89;93189.59;2062263;69;20565;-77
2021/03/26 04:21:43;;;;;;;5.78;3.30;;;;;;;2.36;61.39;93188.88;2061893;69;20145;-76
2021/03/26 04:24:27;;;;;;;7.97;3.53;;;;;;;2.32;60.90;93180.13;2061877;69;20141;-75
2021/03/26 04:27:27;;;;;;;9.77;3.65;;;;;;;2.32;61.55;93185.69;2065235;69;20256;-75
2021/03/26 04:30:17;;;;;;;7.05;3.97;;;;;;;2.22;61.50;93184.69;2061891;69;20156;-75
2021/03/26 04:32:56;;;;;;;8.45;4.25;;;;;;;2.15;61.88;93185.38;2061850;69;20234;-75
2021/03/26 04:35:25;;;;;;;7.20;4.22;;;;;;;1.83;62.66;93182.91;2064594;69;20179;-74
2021/03/26 04:38:07;;;;;;;8.13;4.93;;;;;;;1.85;63.08;93183.88;2064493;69;20497;-75
2021/03/26 04:40:36;;;;;;;7.20;4.55;;;;;;;1.99;62.80;93182.50;2064561;69;20165;-75
2021/03/26 04:43:05;;;;;;;7.82;3.92;;;;;;;1.95;61.88;93184.88;2064616;69;20645;-76
2021/03/26 04:45:35;;;;;;;9.82;4.97;;;;;;;1.81;63.09;93182.72;2064663;69;20145;-77
2021/03/26 04:48:29;;;;;;;7.25;4.97;;;;;;;2.12;61.17;93184.44;2065067;69;20182;-75
2021/03/26 04:51:35;;;;;;;10.18;6.07;;;;;;;1.98;61.95;93188.59;2064547;69;20168;-75
2021/03/26 04:54:29;;;;;;;11.38;6.38;;;;;;;1.91;62.15;93190.00;2064487;69;20182;-76
2021/03/26 04:57:06;;;;;;;12.43;8.85;;;;;;;1.95;62.05;93184.88;2065266;69;20144;-77
2021/03/26 04:59:41;;;;;;;14.18;8.00;;;;;;;2.02;61.01;93184.19;2065147;69;20123;-77
2021/03/26 05:02:15;;;;;;;14.77;8.40;;;;;;;2.08;62.00;93191.63;2064582;69;20500;-75
2021/03/26 05:04:45;;;;;;;14.77;9.75;;;;;;;2.01;61.38;93188.25;2065137;69;20252;-74
2021/03/26 05:07:19;;;;;;;15.32;8.32;;;;;;;1.69;62.61;93185.00;2064577;69;20588;-75
2021/03/26 05:09:52;;;;;;;14.07;6.63;;;;;;;2.15;61.83;93182.59;2064367;69;20178;-75
2021/03/26 05:12:45;;;;;;;12.55;6.45;;;;;;;2.14;61.25;93187.41;2064545;69;20144;-74
2021/03/26 05:15:28;;;;;;;17.05;6.60;;;;;;;1.95;62.72;93184.88;2065219;69;20153;-75
2021/03/26 05:18:32;;;;;;;13.82;7.20;;;;;;;1.96;61.33;93185.59;2061959;69;20176;-75
2021/03/26 05:21:10;;;;;;;10.68;6.10;;;;;;;2.00;61.32;93188.78;2062541;69;20238;-74
2021/03/26 05:23:56;;;;;;;12.95;5.97;;;;;;;1.99;61.80;93188.06;2064936;69;20566;-77
2021/03/26 05:26:40;;;;;;;10.85;5.63;;;;;;;2.11;61.04;93188.53;2065206;69;20163;-75
2021/03/26 05:29:20;;;;;;;12.70;6.57;;;;;;;2.01;61.67;93196.56;2064499;69;20189;-77
2021/03/26 05:32:10;;;;;;;8.80;5.35;;;;;;;1.91;61.19;93195.56;2064435;69;20133;-75
2021/03/26 05:35:08;;;;;;;15.85;5.88;;;;;;;1.88;62.10;93199.44;2061452;69;20524;-75
2021/03/26 05:38:13;;;;;;;20.63;7.32;;;;;;;1.71;62.50;93197.06;2058138;69;20268;-75
2021/03/26 05:41:06;;;;;;;;;;;;;;;1.91;62.43;93203.91;2065212;69;20576;-76
2021/03/26 05:43:58;;;;;;;;;;;;;;;1.97;63.11;93201.75;2065257;69;20048;-74
2021/03/26 05:46:50;;;;;;;12.35;6.72;;;;;;;2.03;61.87;93205.13;2064469;69;20044;-76
2021/03/26 05:49:49;;;;;;;22.45;6.70;;;;;;;2.00;62.48;93203.41;2064585;69;20240;-75
2021/03/26 05:52:29;;;;;;;20.27;7.15;;;;;;;2.01;62.02;93207.69;2064433;69;20231;-75
2021/03/26 05:55:33;;;;;;;15.60;6.53;;;;;;;1.97;62.64;93212.84;2064871;69;20145;-77
2021/03/26 05:58:18;;;;;;;15.73;6.43;;;;;;;1.95;63.06;93206.34;2064441;69;20149;-75
2021/03/26 06:01:08;;;;;;;15.10;6.38;;;;;;;2.03;62.91;93205.13;2065147;69;20633;-75
2021/03/26 06:04:31;;;;;;;14.88;6.60;;;;;;;2.21;62.35;93208.22;2060812;69;20136;-77
2021/03/26 06:07:44;;;;;;;12.15;6.15;;;;;;;2.38;62.04;93211.28;2059242;69;20133;-76
2021/03/26 06:10:44;;;;;;;16.88;7.00;;;;;;;2.00;61.95;93211.75;2065047;69;20241;-77
2021/03/26 06:13:48;;;;;;;17.13;8.65;;;;;;;2.18;62.77;93207.25;2061351;69;20175;-77
2021/03/26 06:16:57;;;;;;;31.08;13.95;;;;;;;2.23;62.37;93206.38;2061960;69;20145;-75
2021/03/26 06:20:22;;;;;;;26.58;14.10;;;;;;;2.39;62.07;93204.47;2057340;69;20168;-77
2021/03/26 06:23:48;;;;;;;21.23;13.80;;;;;;;2.28;62.41;93199.94;2065286;69;20674;-77
2021/03/26 06:26:48;;;;;;;17.52;10.10;;;;;;;2.09;61.90;93210.53;2064904;69;20263;-77
2021/03/26 06:29:44;;;;;;;20.08;10.80;;;;;;;2.26;61.68;93213.63;2065471;69;20137;-74
2021/03/26 06:32:43;;;;;;;18.55;10.45;;;;;;;2.38;61.81;93202.94;2065457;69;20155;-76
2021/03/26 06:35:43;;;;;;;13.98;7.70;;;;;;;2.40;61.16;93205.94;2065374;69;20145;-75
2021/03/26 06:38:12;;;;;;;18.63;9.07;;;;;;;2.41;62.04;93201.88;2065282;69;20145;-77
2021/03/26 06:41:08;;;;;;;13.55;7.78;;;;;;;2.66;60.88;93205.00;2065334;69;20263;-75
2021/03/26 06:44:01;;;;;;;25.77;11.82;;;;;;;2.22;62.54;93206.94;2065485;69;20164;-76
2021/03/26 06:46:48;;;;;;;31.38;10.43;;;;;;;2.44;61.34;93202.81;2065460;69;20132;-75
2021/03/26 06:49:54;;;;;;;25.60;10.43;;;;;;;2.46;60.63;93200.97;2065500;69;20240;-76
2021/03/26 06:53:04;;;;;;;26.52;9.05;;;;;;;2.88;59.94;93203.63;2064868;69;20163;-75
2021/03/26 06:55:30;;;;;;;27.70;9.40;;;;;;;2.81;60.04;93204.34;2054422;70;20161;-75
2021/03/26 06:58:20;;;;;;;22.42;9.52;;;;;;;3.00;59.63;93204.06;2054630;69;20230;-78
2021/03/26 07:01:10;;;;;;;18.10;8.32;;;;;;;2.75;60.32;93198.94;2054584;70;20653;-77
2021/03/26 07:03:59;;;;;;;17.85;8.38;;;;;;;2.97;59.62;93191.22;2054608;70;20145;-78
2021/03/26 07:06:53;;;;;;;24.73;10.52;;;;;;;3.08;59.83;93187.41;2051738;70;20233;-78
2021/03/26 07:09:49;;;;;;;18.90;10.20;;;;;;;3.07;60.14;93192.22;2054599;70;20229;-77
2021/03/26 07:12:26;;;;;;;19.95;9.45;;;;;;;3.06;59.60;93196.28;2054683;69;20134;-78
2021/03/26 07:15:10;;;;;;;25.10;11.05;;;;;;;3.02;59.73;93195.88;2054646;69;20158;-78
2021/03/26 07:17:58;;;;;;;37.25;11.32;;;;;;;3.19;59.26;93192.63;2051738;70;20130;-75
2021/03/26 07:20:42;;;;;;;28.70;10.75;;;;;;;3.14;59.15;93188.72;2054613;69;20274;-77
2021/03/26 07:23:33;;;;;;;20.15;10.20;;;;;;;3.25;59.31;93190.41;2054408;70;20134;-76
2021/03/26 07:26:28;;;;;;;21.80;10.32;;;;;;;3.54;59.85;93179.94;2058830;69;20605;-78
2021/03/26 07:29:28;;;;;;;18.08;9.43;;;;;;;4.59;59.50;93186.09;2065247;69;20164;-77
2021/03/26 07:32:33;;;;;;;13.63;7.47;;;;;;;5.76;57.65;93185.78;2065238;69;20666;-77
2021/03/26 07:35:36;;;;;;;26.70;10.00;;;;;;;6.45;54.58;93190.19;2064706;69;20244;-76
2021/03/26 07:38:31;;;;;;;31.60;9.25;;;;;;;5.78;53.67;93185.25;2065078;69;20133;-78
2021/03/26 07:41:21;;;;;;;27.35;7.30;;;;;;;6.12;52.37;93181.88;2065317;69;20169;-75
2021/03/26 07:43:55;;;;;;;34.75;8.02;;;;;;;7.27;50.54;93181.50;2065214;69;20148;-75
2021/03/26 07:46:35;;;;;;;21.52;6.93;;;;;;;7.27;49.50;93184.31;2064782;69;20554;-76
2021/03/26 07:49:29;;;;;;;24.27;6.20;;;;;;;8.46;47.72;93188.66;2065297;69;20147;-76
2021/03/26 07:52:18;;;;;;;16.30;5.30;;;;;;;9.07;46.22;93178.44;2065218;69;20182;-76
2021/03/26 07:55:09;;;;;;;9.95;4.57;;;;;;;8.31;44.80;93189.63;2065118;69;20227;-76
2021/03/26 07:57:44;;;;;;;12.85;5.30;;;;;;;8.43;45.94;93178.63;2064660;69;20240;-77
2021/03/26 08:00:23;;;;;;;17.65;5.70;;;;;;;8.79;43.59;93177.06;2065301;69;20605;-77
2021/03/26 08:03:04;;;;;;;21.90;5.97;;;;;;;9.98;42.98;93172.28;2065198;69;20145;-76
2021/03/26 08:05:51;;;;;;;21.27;6.95;;;;;;;9.23;43.08;93178.91;2065156;69;20179;-77
2021/03/26 08:08:48;;;;;;;34.53;6.97;;;;;;;9.86;42.32;93178.56;2065087;69;20328;-74
2021/03/26 08:11:51;;;;;;;28.70;8.93;;;;;;;11.37;40.28;93171.91;2065315;69;20231;-77
2021/03/26 08:14:36;;;;;;;24.50;6.07;;;;;;;10.84;39.24;93173.28;2065185;69;20536;-77
2021/03/26 08:17:20;;;;;;;11.50;4.22;;;;;;;9.89;39.02;93168.16;2065286;69;20156;-77
2021/03/26 08:20:05;;;;;;;10.55;2.85;;;;;;;10.94;37.27;93157.81;2065260;69;20168;-76
2021/03/26 08:22:56;;;;;;;14.40;3.78;;;;;;;11.60;37.34;93164.88;2065149;69;20179;-76
2021/03/26 08:25:25;;;;;;;10.43;3.63;;;;;;;12.27;35.10;93168.38;2065281;69;20173;-76
2021/03/26 08:28:19;;;;;;;18.15;4.00;;;;;;;12.25;35.05;93166.19;2065235;69;20129;-76
2021/03/26 08:31:42;;;;;;;12.60;3.60;;;;;;;13.03;35.34;93159.53;2063780;69;20539;-76
2021/03/26 08:34:08;;;;;;;12.02;3.60;;;;;;;13.29;34.00;93161.13;2054283;70;20253;-77
2021/03/26 08:36:39;;;;;;;6.40;2.60;;;;;;;13.75;32.55;93158.75;2054256;69;20169;-75
2021/03/26 08:39:26;;;;;;;6.82;2.65;;;;;;;14.58;31.78;93160.50;2059479;69;20173;-75
2021/03/26 08:42:15;;;;;;;4.07;2.47;;;;;;;14.86;29.44;93149.91;2065094;69;20152;-77
2021/03/26 08:44:42;;;;;;;4.25;2.30;;;;;;;14.49;30.46;93155.75;2063408;69;20156;-77
2021/03/26 08:47:27;;;;;;;8.40;3.50;;;;;;;13.84;31.56;93158.59;2064555;69;20236;-76
2021/03/26 08:50:05;;;;;;;9.10;2.80;;;;;;;15.40;29.81;93153.34;2065231;69;20253;-76
2021/03/26 08:53:14;;;;;;;6.55;2.35;;;;;;;15.31;29.69;93154.31;2065211;69;20167;-76
2021/03/26 08:55:51;;;;;;;4.65;2.00;;;;;;;16.50;28.18;93150.88;2065121;69;20145;-77
2021/03/26 08:58:20;;;;;;;8.25;2.17;;;;;;;16.32;28.04;93150.00;2065087;69;20245;-77
2021/03/26 09:00:46;;;;;;;6.28;2.10;;;;;;;16.38;28.00;93152.41;2065086;69;20180;-78
2021/03/26 09:03:32;;;;;;;6.88;2.00;;;;;;;16.94;27.17;93153.53;2065192;69;20343;-78
2021/03/26 09:06:16;;;;;;;1.65;1.35;;;;;;;17.83;25.46;93150.25;2065030;69;20161;-78
2021/03/26 09:09:25;;;;;;;3.17;1.52;;;;;;;18.06;24.73;93151.88;2064975;69;20291;-81
2021/03/26 09:12:04;;;;;;;3.22;1.50;;;;;;;18.11;24.19;93144.97;2065043;69;20157;-79
2021/03/26 09:14:59;;;;;;;2.80;1.40;;;;;;;18.69;24.37;93148.63;2065197;69;20157;-81
2021/03/26 09:17:30;;;;;;;6.22;2.00;;;;;;;17.43;24.62;93141.44;2065261;69;20149;-78
2021/03/26 09:20:04;;;;;;;1.50;1.30;;;;;;;16.72;24.23;93136.22;2065066;69;20198;-77
2021/03/26 09:22:56;;;;;;;3.30;1.30;;;;;;;18.09;24.46;93137.03;2065246;69;20152;-78
2021/03/26 09:25:45;;;;;;;2.40;1.50;;;;;;;18.60;24.19;93141.13;2065121;69;20152;-77
2021/03/26 09:28:22;;;;;;;2.00;1.45;;;;;;;16.68;25.35;93124.66;2064902;69;20593;-76
2021/03/26 09:31:02;;;;;;;2.17;1.33;;;;;;;19.88;23.27;93127.88;2064564;69;20145;-78
2021/03/26 09:33:28;;;;;;;3.00;1.33;;;;;;;20.73;22.05;93124.88;2065134;69;20181;-77
2021/03/26 09:36:01;;;;;;;4.53;1.58;;;;;;;20.74;22.10;93128.47;2065102;69;20161;-76
2021/03/26 09:38:34;;;;;;;2.58;1.38;;;;;;;21.93;20.00;93121.72;2064908;69;20177;-76
2021/03/26 09:41:23;;;;;;;2.03;1.35;;;;;;;21.00;20.95;93114.94;2064972;69;20197;-76
2021/03/26 09:44:05;;;;;;;1.60;1.30;;;;;;;21.13;20.53;93118.88;2065102;69;20538;-76
2021/03/26 09:46:51;;;;;;;4.30;2.00;;;;;;;21.78;20.04;93119.91;2065067;69;20133;-76
2021/03/26 09:49:26;;;;;;;2.42;1.17;;;;;;;22.64;19.96;93101.94;2065076;69;20200;-75
2021/03/26 09:51:56;;;;;;;5.90;1.90;;;;;;;22.08;19.90;93099.88;2064908;69;20144;-76
2021/03/26 09:54:35;;;;;;;2.58;1.30;;;;;;;21.49;19.30;93102.00;2064862;69;20597;-76
2021/03/26 09:57:25;;;;;;;2.92;1.17;;;;;;;19.50;21.25;93090.91;2064748;69;20145;-76
2021/03/26 10:00:28;;;;;;;2.38;1.20;;;;;;;20.15;20.69;93086.59;2064933;69;20158;-76
2021/03/26 10:03:12;;;;;;;3.20;1.40;;;;;;;20.46;20.90;93077.56;2064897;69;20171;-76
2021/03/26 10:05:49;;;;;;;4.28;1.30;;;;;;;20.88;19.72;93082.38;2061616;69;20149;-76
2021/03/26 10:11:08;;;;;;;6.03;3.30;;;;;;;22.50;20.12;93068.63;2065026;69;20195;-77
2021/03/26 10:13:44;;;;;;;5.78;3.38;;;;;;;20.50;20.35;93066.28;2061572;69;20164;-77
2021/03/26 10:16:13;;;;;;;6.47;3.78;;;;;;;20.80;21.37;93065.69;2065053;69;20141;-77
2021/03/26 10:18:45;;;;;;;6.85;1.52;;;;;;;21.68;21.20;93059.50;2064916;69;20680;-77
2021/03/26 10:21:15;;;;;;;1.25;1.10;;;;;;;21.91;19.11;93055.78;2064928;69;20153;-76
2021/03/26 10:23:51;;;;;;;5.75;1.30;;;;;;;21.41;20.25;93055.94;2064840;69;20199;-77
2021/03/26 10:26:38;;;;;;;2.20;1.50;;;;;;;20.75;19.98;93050.53;2064829;69;20149;-77
2021/03/26 10:29:25;;;;;;;5.97;1.85;;;;;;;20.60;20.55;93045.09;2064968;69;20247;-77
2021/03/26 10:31:53;;;;;;;2.58;1.60;;;;;;;21.70;19.47;93033.75;2064824;69;20251;-77
2021/03/26 10:34:31;;;;;;;2.25;1.30;;;;;;;21.93;18.63;93032.88;2064906;69;20501;-78
2021/03/26 10:37:02;;;;;;;1.50;1.00;;;;;;;25.42;16.24;93032.50;2065010;69;20135;-79
2021/03/26 10:39:50;;;;;;;1.38;1.27;;;;;;;24.63;17.43;93029.38;2064779;69;20145;-76
2021/03/26 10:42:30;;;;;;;2.75;1.10;;;;;;;27.34;14.85;93031.75;2061559;69;20150;-77
2021/03/26 10:45:22;;;;;;;2.97;1.15;;;;;;;26.60;14.60;93036.44;2061511;69;20497;-77
2021/03/26 10:48:09;;;;;;;1.70;1.13;;;;;;;25.53;15.00;93022.56;2058227;69;20138;-78
2021/03/26 10:50:41;;;;;;;3.15;2.13;;;;;;;31.06;12.52;93026.09;2061439;69;20149;-77
2021/03/26 10:53:15;;;;;;;2.55;2.00;;;;;;;32.13;12.08;93028.38;2061426;69;20328;-77
2021/03/26 10:55:45;;;;;;;4.85;1.95;;;;;;;32.59;11.41;93026.94;2061467;69;20687;-78
2021/03/26 10:58:17;;;;;;;2.85;1.85;;;;;;;31.01;12.72;93012.34;2060645;69;20146;-78
2021/03/26 11:00:58;;;;;;;2.67;2.33;;;;;;;30.35;12.27;93009.34;2057585;69;20142;-78
2021/03/26 11:03:31;;;;;;;5.15;2.58;;;;;;;30.55;12.70;92999.72;2061234;69;20235;-77
2021/03/26 11:06:08;;;;;;;3.33;1.80;;;;;;;31.77;12.29;93003.41;2061143;69;20145;-77
2021/03/26 11:08:34;;;;;;;3.58;2.60;;;;;;;30.80;11.50;92997.31;2061146;69;20181;-76
2021/03/26 11:11:08;;;;;;;5.28;4.78;;;;;;;36.81;9.46;93003.25;2061596;69;20215;-76
2021/03/26 11:13:44;;;;;;;5.90;2.13;;;;;;;36.80;9.37;92995.97;2061280;69;20667;-77
2021/03/26 11:17:06;;;;;;;4.30;4.00;;;;;;;37.04;9.07;92998.06;2061361;69;20231;-76
2021/03/26 11:19:37;;;;;;;1.75;1.65;;;;;;;39.50;8.24;92989.19;2054832;69;20157;-77
2021/03/26 11:22:16;;;;;;;1.83;1.30;;;;;;;32.87;10.29;92981.25;2061168;69;20157;-77
2021/03/26 11:24:56;;;;;;;3.53;1.40;;;;;;;33.40;10.27;92974.38;2061436;69;20216;-78
2021/03/26 11:27:27;;;;;;;1.90;1.80;;;;;;;34.05;9.99;92969.34;2061465;69;20136;-78
2021/03/26 11:30:25;;;;;;;3.20;1.63;;;;;;;33.72;10.12;92961.31;2061515;69;20254;-81
2021/03/26 11:32:59;;;;;;;1.80;1.40;;;;;;;40.04;8.92;92965.31;2053810;69;20185;-77
2021/03/26 11:35:32;;;;;;;2.58;2.05;;;;;;;37.96;8.71;92959.50;2061737;69;20150;-75
2021/03/26 11:38:01;;;;;;;1.70;1.40;;;;;;;38.56;9.08;92955.63;2061031;69;20181;-74
2021/03/26 11:40:33;;;;;;;2.17;1.30;;;;;;;39.68;8.15;92947.16;2061424;69;20164;-79
2021/03/26 11:43:26;;;;;;;1.75;1.50;;;;;;;40.59;7.63;92950.19;2061829;69;20239;-77
2021/03/26 11:45:55;;;;;;;2.30;1.55;;;;;;;35.64;8.90;92932.94;2061098;69;20141;-73
2021/03/26 11:48:33;;;;;;;6.70;1.63;;;;;;;35.91;9.65;92935.78;2061532;69;20154;-78
2021/03/26 11:51:10;;;;;;;3.70;3.40;;;;;;;37.32;8.67;92937.63;2064986;69;20148;-79
2021/03/26 11:53:57;;;;;;;3.35;3.05;;;;;;;40.95;7.16;92923.34;2065016;69;20226;-78
2021/03/26 11:56:32;;;;;;;2.42;1.38;;;;;;;37.05;9.33;92911.47;2065051;69;20165;-79
2021/03/26 11:59:11;;;;;;;1.77;1.67;;;;;;;36.23;9.39;92910.59;2064933;69;20170;-79
2021/03/26 12:02:00;;;;;;;3.22;1.58;;;;;;;39.39;9.01;92906.47;2064573;69;20204;-79
2021/03/26 12:04:45;;;;;;;2.75;1.20;;;;;;;37.83;8.47;92905.63;2064648;69;20148;-75
2021/03/26 12:07:15;;;;;;;1.52;1.10;;;;;;;38.35;7.80;92899.16;2064480;69;20145;-79
2021/03/26 12:09:52;;;;;;;3.80;1.48;;;;;;;37.77;8.31;92894.13;2064385;69;20148;-78
2021/03/26 12:12:25;;;;;;;3.97;1.23;;;;;;;38.52;8.21;92899.19;2064622;69;20145;-79
2021/03/26 12:14:53;;;;;;;2.90;1.20;;;;;;;37.28;8.23;92884.94;2064774;69;20224;-75
2021/03/26 12:17:21;;;;;;;5.13;1.00;;;;;;;38.10;7.83;92873.69;2064658;69;20140;-72
2021/03/26 12:19:57;;;;;;;2.90;0.98;;;;;;;36.44;9.12;92871.84;2064190;69;20552;-75
2021/03/26 12:22:30;;;;;;;17.15;1.30;;;;;;;42.80;6.97;92877.69;2064646;69;20133;-77
2021/03/26 12:25:23;;;;;;;2.50;1.00;;;;;;;38.93;7.63;92859.94;2064352;69;20153;-73
2021/03/26 12:27:54;;;;;;;4.45;1.20;;;;;;;42.23;6.96;92874.34;2065022;69;20138;-72
2021/03/26 12:30:28;;;;;;;1.10;0.90;;;;;;;42.51;7.67;92863.81;2062267;69;20242;-73
2021/03/26 12:32:59;;;;;;;2.67;1.10;;;;;;;44.65;7.13;92864.63;2067969;69;20582;-73
2021/03/26 12:35:42;;;;;;;2.25;0.95;;;;;;;43.82;6.27;92870.72;2068214;69;20318;-74
2021/03/26 12:38:12;;;;;;;3.63;1.00;;;;;;;42.89;6.63;92860.16;2068036;69;20222;-74
2021/03/26 12:41:01;;;;;;;3.30;1.08;;;;;;;38.78;8.05;92841.50;2068246;69;20180;-72
2021/03/26 12:43:29;;;;;;;1.63;1.00;;;;;;;39.66;8.35;92844.13;2068265;69;20245;-76
2021/03/26 12:46:10;;;;;;;2.00;1.00;;;;;;;41.07;7.52;92834.16;2068136;69;20289;-74